createdAt,value
2018-12-31T00:00:21.172Z,8.04
2018-12-31T00:01:21.170Z,8.05
2018-12-31T00:02:21.123Z,8.10
2018-12-31T00:03:21.113Z,8.05
2018-12-31T00:04:21.130Z,8.06
2018-12-31T00:05:21.090Z,8.06
2018-12-31T00:06:21.131Z,8.09
2018-12-31T00:07:21.069Z,8.05
2018-12-31T00:08:21.055Z,8.10
2018-12-31T00:09:21.051Z,8.09
2018-12-31T00:10:21.055Z,8.14
2018-12-31T00:11:21.064Z,8.10
2018-12-31T00:12:21.025Z,8.10
2018-12-31T00:13:21.000Z,8.10
2018-12-31T00:14:20.988Z,8.06
2018-12-31T00:15:21.003Z,8.06
2018-12-31T00:16:20.994Z,8.06
2018-12-31T00:17:20.960Z,8.16
2018-12-31T00:18:20.956Z,8.10
2018-12-31T00:19:20.933Z,8.12
2018-12-31T00:20:20.944Z,8.06
2018-12-31T00:21:20.906Z,8.10
2018-12-31T00:22:20.901Z,8.14
2018-12-31T00:23:20.910Z,8.12
2018-12-31T00:24:20.890Z,8.13
2018-12-31T00:25:21.053Z,8.16
2018-12-31T00:26:20.850Z,8.09
2018-12-31T00:27:20.839Z,8.13
2018-12-31T00:28:20.828Z,8.14
2018-12-31T00:29:20.817Z,8.09
2018-12-31T00:30:20.810Z,8.10
2018-12-31T00:31:20.831Z,8.13
2018-12-31T00:32:20.788Z,8.17
2018-12-31T00:33:20.788Z,8.10
2018-12-31T00:34:20.763Z,8.21
2018-12-31T00:35:20.751Z,8.13
2018-12-31T00:36:20.776Z,8.14
2018-12-31T00:37:20.730Z,8.14
2018-12-31T00:38:20.717Z,8.12
2018-12-31T00:39:20.707Z,8.16
2018-12-31T00:40:20.749Z,8.14
2018-12-31T00:41:20.682Z,8.10
2018-12-31T00:42:20.689Z,8.20
2018-12-31T00:43:20.663Z,8.13
2018-12-31T00:44:20.666Z,8.17
2018-12-31T00:45:20.651Z,8.12
2018-12-31T00:46:20.744Z,8.17
2018-12-31T00:47:20.635Z,8.20
2018-12-31T00:48:20.603Z,8.06
2018-12-31T00:49:20.608Z,8.20
2018-12-31T00:50:20.577Z,8.16
2018-12-31T00:51:20.587Z,8.16
2018-12-31T00:52:20.554Z,8.16
2018-12-31T00:53:20.547Z,8.12
2018-12-31T00:54:20.531Z,8.23
2018-12-31T00:55:20.518Z,8.17
2018-12-31T00:56:20.531Z,8.20
2018-12-31T00:57:20.500Z,8.12
2018-12-31T00:58:20.515Z,8.20
2018-12-31T00:59:20.494Z,8.17
2018-12-31T01:00:20.460Z,8.16
2018-12-31T01:01:20.474Z,8.19
2018-12-31T01:02:20.440Z,8.21
2018-12-31T01:03:20.426Z,8.16
2018-12-31T01:04:20.413Z,8.16
2018-12-31T01:05:20.407Z,8.19
2018-12-31T01:06:20.419Z,8.13
2018-12-31T01:07:20.414Z,8.17
2018-12-31T01:08:20.377Z,8.19
2018-12-31T01:09:20.357Z,8.19
2018-12-31T01:10:20.343Z,8.17
2018-12-31T01:11:20.366Z,8.20
2018-12-31T01:12:20.355Z,8.13
2018-12-31T01:13:20.380Z,8.14
2018-12-31T01:14:20.300Z,8.19
2018-12-31T01:15:20.288Z,8.17
2018-12-31T01:16:20.289Z,8.17
2018-12-31T01:17:20.293Z,8.21
2018-12-31T01:18:20.292Z,8.19
2018-12-31T01:19:20.246Z,8.23
2018-12-31T01:20:20.276Z,8.21
2018-12-31T01:21:20.244Z,8.19
2018-12-31T01:22:20.207Z,8.19
2018-12-31T01:23:20.194Z,8.31
2018-12-31T01:24:20.187Z,8.20
2018-12-31T01:25:20.176Z,8.23
2018-12-31T01:26:20.172Z,8.19
2018-12-31T01:27:20.184Z,8.17
2018-12-31T01:28:20.172Z,8.19
2018-12-31T01:29:20.135Z,8.17
2018-12-31T01:30:20.125Z,8.17
2018-12-31T01:31:20.113Z,8.26
2018-12-31T01:32:20.105Z,8.28
2018-12-31T01:33:20.113Z,8.24
2018-12-31T01:34:20.077Z,8.23
2018-12-31T01:35:20.069Z,8.19
2018-12-31T01:36:20.060Z,8.23
2018-12-31T01:37:20.097Z,8.28
2018-12-31T01:38:20.035Z,8.19
2018-12-31T01:39:20.026Z,8.24
2018-12-31T01:40:20.006Z,8.21
2018-12-31T01:41:19.998Z,8.24
2018-12-31T01:42:19.993Z,8.21
2018-12-31T01:43:20.006Z,8.24
2018-12-31T01:44:19.968Z,8.23
2018-12-31T01:45:19.972Z,8.20
2018-12-31T01:46:19.946Z,8.17
2018-12-31T01:47:19.936Z,8.29
2018-12-31T01:48:19.957Z,8.24
2018-12-31T01:49:19.911Z,8.23
2018-12-31T01:50:19.920Z,8.26
2018-12-31T01:51:19.931Z,8.24
2018-12-31T01:52:19.906Z,8.26
2018-12-31T01:53:19.921Z,8.28
2018-12-31T01:54:19.861Z,8.31
2018-12-31T01:55:19.846Z,8.32
2018-12-31T01:56:19.844Z,8.32
2018-12-31T01:57:19.823Z,8.31
2018-12-31T01:58:19.807Z,8.32
2018-12-31T01:59:19.822Z,8.29
2018-12-31T02:00:19.790Z,8.34
2018-12-31T02:01:19.785Z,8.32
2018-12-31T02:02:19.768Z,8.29
2018-12-31T02:03:19.752Z,8.37
2018-12-31T02:04:19.761Z,8.28
2018-12-31T02:05:19.732Z,8.32
2018-12-31T02:06:19.723Z,8.35
2018-12-31T02:07:19.718Z,8.31
2018-12-31T02:08:19.698Z,8.31
2018-12-31T02:09:19.711Z,8.37
2018-12-31T02:10:19.680Z,8.28
2018-12-31T02:11:19.661Z,8.41
2018-12-31T02:12:19.652Z,8.29
2018-12-31T02:13:19.646Z,8.35
2018-12-31T02:14:19.630Z,8.29
2018-12-31T02:15:19.646Z,8.31
2018-12-31T02:16:19.604Z,8.38
2018-12-31T02:17:19.617Z,8.32
2018-12-31T02:18:19.582Z,8.26
2018-12-31T02:19:19.613Z,8.29
2018-12-31T02:20:19.562Z,8.38
2018-12-31T02:21:19.557Z,8.32
2018-12-31T02:22:19.541Z,8.46
2018-12-31T02:23:19.530Z,8.39
2018-12-31T02:24:19.557Z,8.38
2018-12-31T02:25:19.514Z,8.41
2018-12-31T02:26:19.490Z,8.41
2018-12-31T02:27:19.485Z,8.31
2018-12-31T02:28:19.472Z,8.46
2018-12-31T02:29:19.463Z,8.46
2018-12-31T02:30:19.471Z,8.44
2018-12-31T02:31:19.501Z,8.44
2018-12-31T02:32:19.436Z,8.35
2018-12-31T02:33:19.420Z,8.46
2018-12-31T02:34:19.405Z,8.42
2018-12-31T02:35:19.395Z,8.38
2018-12-31T02:36:19.589Z,8.44
2018-12-31T02:37:19.417Z,8.52
2018-12-31T02:38:19.363Z,8.52
2018-12-31T02:39:19.349Z,8.52
2018-12-31T02:40:19.374Z,8.41
2018-12-31T02:41:19.332Z,8.47
2018-12-31T02:42:19.326Z,8.47
2018-12-31T02:43:19.309Z,8.47
2018-12-31T02:44:19.303Z,8.47
2018-12-31T02:45:19.307Z,8.55
2018-12-31T02:46:19.278Z,8.47
2018-12-31T02:47:19.267Z,8.44
2018-12-31T02:48:19.254Z,8.50
2018-12-31T02:49:19.267Z,8.49
2018-12-31T02:50:19.233Z,8.44
2018-12-31T02:51:19.239Z,8.53
2018-12-31T02:52:19.241Z,8.53
2018-12-31T02:53:19.200Z,8.44
2018-12-31T02:54:19.189Z,8.42
2018-12-31T02:55:19.173Z,8.44
2018-12-31T02:56:19.216Z,8.52
2018-12-31T02:57:19.180Z,8.49
2018-12-31T02:58:19.142Z,8.50
2018-12-31T02:59:19.141Z,8.42
2018-12-31T03:00:19.117Z,8.49
2018-12-31T03:01:19.132Z,8.42
2018-12-31T03:02:21.065Z,8.49
2018-12-31T03:03:19.101Z,8.49
2018-12-31T03:04:19.075Z,8.49
2018-12-31T03:05:19.062Z,8.44
2018-12-31T03:06:19.086Z,8.49
2018-12-31T03:07:19.046Z,8.39
2018-12-31T03:08:19.027Z,8.42
2018-12-31T03:09:19.032Z,8.49
2018-12-31T03:10:19.017Z,8.47
2018-12-31T03:11:19.006Z,8.39
2018-12-31T03:12:19.016Z,8.41
2018-12-31T03:13:18.979Z,8.44
2018-12-31T03:14:18.966Z,8.53
2018-12-31T03:15:18.969Z,8.52
2018-12-31T03:16:18.943Z,8.42
2018-12-31T03:17:18.935Z,8.52
2018-12-31T03:18:18.944Z,8.42
2018-12-31T03:19:18.909Z,8.52
2018-12-31T03:20:18.908Z,8.47
2018-12-31T03:21:18.899Z,8.50
2018-12-31T03:22:18.897Z,8.49
2018-12-31T03:23:18.872Z,8.47
2018-12-31T03:24:18.854Z,8.53
2018-12-31T03:25:18.845Z,8.44
2018-12-31T03:26:19.071Z,8.37
2018-12-31T03:27:18.831Z,8.41
2018-12-31T03:28:18.809Z,8.49
2018-12-31T03:29:18.798Z,8.47
2018-12-31T03:30:18.801Z,8.41
2018-12-31T03:31:18.784Z,8.44
2018-12-31T03:32:18.822Z,8.47
2018-12-31T03:33:18.756Z,8.47
2018-12-31T03:34:18.743Z,8.46
2018-12-31T03:35:18.742Z,8.47
2018-12-31T03:36:18.724Z,8.52
2018-12-31T03:37:18.709Z,8.49
2018-12-31T03:38:18.724Z,8.52
2018-12-31T03:39:18.718Z,8.42
2018-12-31T03:40:18.675Z,8.42
2018-12-31T03:41:18.666Z,8.42
2018-12-31T03:42:18.664Z,8.50
2018-12-31T03:43:18.668Z,8.47
2018-12-31T03:44:18.648Z,8.50
2018-12-31T03:45:18.630Z,8.56
2018-12-31T03:46:18.612Z,8.57
2018-12-31T03:47:18.635Z,8.59
2018-12-31T03:48:18.609Z,8.63
2018-12-31T03:49:18.591Z,8.52
2018-12-31T03:50:18.569Z,8.55
2018-12-31T03:51:18.578Z,8.55
2018-12-31T03:52:18.547Z,8.47
2018-12-31T03:53:18.565Z,8.53
2018-12-31T03:54:18.528Z,8.55
2018-12-31T03:55:18.518Z,8.55
2018-12-31T03:56:18.504Z,8.50
2018-12-31T03:57:18.496Z,8.56
2018-12-31T03:58:18.503Z,8.50
2018-12-31T03:59:18.497Z,8.60
2018-12-31T04:00:18.458Z,8.59
2018-12-31T04:01:18.444Z,8.57
2018-12-31T04:02:18.436Z,8.56
2018-12-31T04:03:18.447Z,8.56
2018-12-31T04:04:18.409Z,8.57
2018-12-31T04:05:18.443Z,8.57
2018-12-31T04:06:18.395Z,8.57
2018-12-31T04:07:18.379Z,8.65
2018-12-31T04:08:18.398Z,8.56
2018-12-31T04:09:18.361Z,8.56
2018-12-31T04:10:18.346Z,8.59
2018-12-31T04:11:18.352Z,8.60
2018-12-31T04:12:18.335Z,8.63
2018-12-31T04:13:18.340Z,8.59
2018-12-31T04:14:18.322Z,8.62
2018-12-31T04:15:18.293Z,8.57
2018-12-31T04:16:18.282Z,8.67
2018-12-31T04:17:18.284Z,8.62
2018-12-31T04:18:18.258Z,8.57
2018-12-31T04:19:18.281Z,8.60
2018-12-31T04:20:18.253Z,8.57
2018-12-31T04:21:18.251Z,8.63
2018-12-31T04:22:18.214Z,8.62
2018-12-31T04:23:18.207Z,8.59
2018-12-31T04:24:18.191Z,8.59
2018-12-31T04:25:18.212Z,8.67
2018-12-31T04:26:18.171Z,8.65
2018-12-31T04:27:18.157Z,8.71
2018-12-31T04:28:18.155Z,8.60
2018-12-31T04:29:18.170Z,8.71
2018-12-31T04:30:18.124Z,8.60
2018-12-31T04:31:18.310Z,8.71
2018-12-31T04:32:18.104Z,8.67
2018-12-31T04:33:18.096Z,8.65
2018-12-31T04:34:18.087Z,8.60
2018-12-31T04:35:18.079Z,8.67
2018-12-31T04:36:18.080Z,8.70
2018-12-31T04:37:18.074Z,8.70
2018-12-31T04:38:18.039Z,8.59
2018-12-31T04:39:18.028Z,8.62
2018-12-31T04:40:18.047Z,8.77
2018-12-31T04:41:18.037Z,8.62
2018-12-31T04:42:18.015Z,8.67
2018-12-31T04:43:18.037Z,8.70
2018-12-31T04:44:17.976Z,8.65
2018-12-31T04:45:17.987Z,8.70
2018-12-31T04:46:17.951Z,8.65
2018-12-31T04:47:17.936Z,8.68
2018-12-31T04:48:17.938Z,8.70
2018-12-31T04:49:18.052Z,8.59
2018-12-31T04:50:17.917Z,8.71
2018-12-31T04:51:17.925Z,8.72
2018-12-31T04:52:17.893Z,8.74
2018-12-31T04:53:17.873Z,8.74
2018-12-31T04:54:17.859Z,8.72
2018-12-31T04:55:17.882Z,8.74
2018-12-31T04:56:17.863Z,8.70
2018-12-31T04:57:17.846Z,8.74
2018-12-31T04:58:22.897Z,8.62
2018-12-31T04:59:18.805Z,8.72
2018-12-31T05:00:17.812Z,8.72
2018-12-31T05:01:17.823Z,8.74
2018-12-31T05:02:17.778Z,8.70
2018-12-31T05:03:17.781Z,8.71
2018-12-31T05:04:17.757Z,8.75
2018-12-31T05:05:17.744Z,8.75
2018-12-31T05:06:17.728Z,8.74
2018-12-31T05:07:17.757Z,8.71
2018-12-31T05:08:17.712Z,8.74
2018-12-31T05:09:17.707Z,8.70
2018-12-31T05:10:17.716Z,8.77
2018-12-31T05:11:17.949Z,8.70
2018-12-31T05:12:17.711Z,8.74
2018-12-31T05:13:17.667Z,8.72
2018-12-31T05:14:17.652Z,8.75
2018-12-31T05:15:17.629Z,8.74
2018-12-31T05:16:17.622Z,8.70
2018-12-31T05:17:17.643Z,8.68
2018-12-31T05:18:17.604Z,8.75
2018-12-31T05:19:17.592Z,8.74
2018-12-31T05:20:17.584Z,8.74
2018-12-31T05:21:17.565Z,8.77
2018-12-31T05:22:17.560Z,8.74
2018-12-31T05:23:17.562Z,8.75
2018-12-31T05:24:17.535Z,8.77
2018-12-31T05:25:17.528Z,8.80
2018-12-31T05:26:17.509Z,8.75
2018-12-31T05:27:17.528Z,8.81
2018-12-31T05:28:17.503Z,8.75
2018-12-31T05:29:17.479Z,8.80
2018-12-31T05:30:17.505Z,8.78
2018-12-31T05:31:17.452Z,8.75
2018-12-31T05:32:17.552Z,8.77
2018-12-31T05:33:17.465Z,8.78
2018-12-31T05:34:17.425Z,8.80
2018-12-31T05:35:17.420Z,8.80
2018-12-31T05:36:17.397Z,8.77
2018-12-31T05:37:17.414Z,8.80
2018-12-31T05:38:17.383Z,8.74
2018-12-31T05:39:17.371Z,8.78
2018-12-31T05:40:17.359Z,8.78
2018-12-31T05:41:17.918Z,8.80
2018-12-31T05:42:17.342Z,8.77
2018-12-31T05:43:17.366Z,8.78
2018-12-31T05:44:17.317Z,8.80
2018-12-31T05:45:17.302Z,8.77
2018-12-31T05:46:17.301Z,8.78
2018-12-31T05:47:17.301Z,8.83
2018-12-31T05:48:17.273Z,8.80
2018-12-31T05:49:17.255Z,8.74
2018-12-31T05:50:17.252Z,8.80
2018-12-31T05:51:17.251Z,8.78
2018-12-31T05:52:17.422Z,8.78
2018-12-31T05:53:17.219Z,8.74
2018-12-31T05:54:17.202Z,8.78
2018-12-31T05:55:17.196Z,8.81
2018-12-31T05:56:17.180Z,8.75
2018-12-31T05:57:17.201Z,8.83
2018-12-31T05:58:17.188Z,8.74
2018-12-31T05:59:17.149Z,8.81
2018-12-31T06:00:17.134Z,8.74
2018-12-31T06:01:17.125Z,8.80
2018-12-31T06:02:17.118Z,8.81
2018-12-31T06:03:17.132Z,8.78
2018-12-31T06:04:17.127Z,8.83
2018-12-31T06:05:17.363Z,8.81
2018-12-31T06:06:17.083Z,8.81
2018-12-31T06:07:17.055Z,8.72
2018-12-31T06:08:17.069Z,8.72
2018-12-31T06:09:17.078Z,8.75
2018-12-31T06:10:17.029Z,8.80
2018-12-31T06:11:17.113Z,8.71
2018-12-31T06:12:17.004Z,8.78
2018-12-31T06:13:16.994Z,8.75
2018-12-31T06:14:17.001Z,8.86
2018-12-31T06:15:16.966Z,8.81
2018-12-31T06:16:16.962Z,8.83
2018-12-31T06:17:16.947Z,8.80
2018-12-31T06:18:16.957Z,8.71
2018-12-31T06:19:16.960Z,8.71
2018-12-31T06:20:16.931Z,8.83
2018-12-31T06:21:16.903Z,8.80
2018-12-31T06:22:16.893Z,8.86
2018-12-31T06:23:16.887Z,8.80
2018-12-31T06:24:16.867Z,8.83
2018-12-31T06:25:16.895Z,8.88
2018-12-31T06:26:16.856Z,8.71
2018-12-31T06:27:16.841Z,8.81
2018-12-31T06:28:16.832Z,8.71
2018-12-31T06:29:16.815Z,8.77
2018-12-31T06:30:16.832Z,8.85
2018-12-31T06:31:16.822Z,8.80
2018-12-31T06:32:16.781Z,8.78
2018-12-31T06:33:16.772Z,8.81
2018-12-31T06:34:16.757Z,8.80
2018-12-31T06:35:16.996Z,8.74
2018-12-31T06:36:16.743Z,8.80
2018-12-31T06:37:16.724Z,8.80
2018-12-31T06:38:16.715Z,8.77
2018-12-31T06:39:16.721Z,8.72
2018-12-31T06:40:16.695Z,8.77
2018-12-31T06:41:16.718Z,8.80
2018-12-31T06:42:16.693Z,8.80
2018-12-31T06:43:16.661Z,8.81
2018-12-31T06:44:16.649Z,8.81
2018-12-31T06:45:16.663Z,8.77
2018-12-31T06:46:16.631Z,8.72
2018-12-31T06:47:16.623Z,8.80
2018-12-31T06:48:16.605Z,8.81
2018-12-31T06:49:16.594Z,8.72
2018-12-31T06:50:16.607Z,8.74
2018-12-31T06:51:16.594Z,8.78
2018-12-31T06:52:16.558Z,8.80
2018-12-31T06:53:16.563Z,8.78
2018-12-31T06:54:16.536Z,8.78
2018-12-31T06:55:16.538Z,8.74
2018-12-31T06:56:16.572Z,8.80
2018-12-31T06:57:16.515Z,8.80
2018-12-31T06:58:16.491Z,8.81
2018-12-31T06:59:16.499Z,8.75
2018-12-31T07:00:16.474Z,8.81
2018-12-31T07:01:16.515Z,8.75
2018-12-31T07:02:16.460Z,8.78
2018-12-31T07:03:16.469Z,8.74
2018-12-31T07:04:16.436Z,8.78
2018-12-31T07:05:16.428Z,8.80
2018-12-31T07:06:16.433Z,8.80
2018-12-31T07:07:16.404Z,8.72
2018-12-31T07:08:16.393Z,8.78
2018-12-31T07:09:16.373Z,8.68
2018-12-31T07:10:16.360Z,8.74
2018-12-31T07:11:16.369Z,8.78
2018-12-31T07:12:16.370Z,8.71
2018-12-31T07:13:16.353Z,8.80
2018-12-31T07:14:16.315Z,8.75
2018-12-31T07:15:16.310Z,8.80
2018-12-31T07:16:16.507Z,8.81
2018-12-31T07:17:16.318Z,8.80
2018-12-31T07:18:16.311Z,8.83
2018-12-31T07:19:16.269Z,8.77
2018-12-31T07:20:16.252Z,8.77
2018-12-31T07:21:16.245Z,8.78
2018-12-31T07:22:16.272Z,8.78
2018-12-31T07:23:16.237Z,8.78
2018-12-31T07:24:16.249Z,8.80
2018-12-31T07:25:16.206Z,8.75
2018-12-31T07:26:16.188Z,8.80
2018-12-31T07:27:16.176Z,8.70
2018-12-31T07:28:16.173Z,8.78
2018-12-31T07:29:16.181Z,8.70
2018-12-31T07:30:16.148Z,8.71
2018-12-31T07:31:16.131Z,8.72
2018-12-31T07:32:16.156Z,8.70
2018-12-31T07:33:16.129Z,8.74
2018-12-31T07:34:16.130Z,8.71
2018-12-31T07:35:16.089Z,8.74
2018-12-31T07:36:16.078Z,8.71
2018-12-31T07:37:16.112Z,8.74
2018-12-31T07:38:16.053Z,8.65
2018-12-31T07:39:16.050Z,8.70
2018-12-31T07:40:16.033Z,8.70
2018-12-31T07:41:16.018Z,8.65
2018-12-31T07:42:16.050Z,8.70
2018-12-31T07:43:15.999Z,8.70
2018-12-31T07:44:15.991Z,8.65
2018-12-31T07:45:15.976Z,8.67
2018-12-31T07:46:15.975Z,8.70
2018-12-31T07:47:15.955Z,8.65
2018-12-31T07:48:15.965Z,8.67
2018-12-31T07:49:15.945Z,8.71
2018-12-31T07:50:15.918Z,8.68
2018-12-31T07:51:15.911Z,8.77
2018-12-31T07:52:15.905Z,8.75
2018-12-31T07:53:15.908Z,8.62
2018-12-31T07:54:15.901Z,8.60
2018-12-31T07:55:15.867Z,8.67
2018-12-31T07:56:15.857Z,8.62
2018-12-31T07:57:15.841Z,8.72
2018-12-31T07:58:15.874Z,8.63
2018-12-31T07:59:15.844Z,8.72
2018-12-31T08:00:15.810Z,8.65
2018-12-31T08:01:15.800Z,8.77
2018-12-31T08:02:15.788Z,8.70
2018-12-31T08:03:15.802Z,8.70
2018-12-31T08:04:16.124Z,8.68
2018-12-31T08:05:15.771Z,8.70
2018-12-31T08:06:15.742Z,8.71
2018-12-31T08:07:15.737Z,8.72
2018-12-31T08:08:15.756Z,8.72
2018-12-31T08:09:15.719Z,8.70
2018-12-31T08:10:15.723Z,8.70
2018-12-31T08:11:15.714Z,8.70
2018-12-31T08:12:15.677Z,8.70
2018-12-31T08:13:15.708Z,8.72
2018-12-31T08:14:15.653Z,8.74
2018-12-31T08:15:15.647Z,8.74
2018-12-31T08:16:15.655Z,8.72
2018-12-31T08:17:15.627Z,8.75
2018-12-31T08:18:15.908Z,8.72
2018-12-31T08:19:15.614Z,8.70
2018-12-31T08:20:15.589Z,8.70
2018-12-31T08:21:15.579Z,8.74
2018-12-31T08:22:15.567Z,8.72
2018-12-31T08:23:15.560Z,8.70
2018-12-31T08:24:15.567Z,8.71
2018-12-31T08:25:15.539Z,8.67
2018-12-31T08:26:15.751Z,8.75
2018-12-31T08:27:15.525Z,8.74
2018-12-31T08:28:15.521Z,8.72
2018-12-31T08:29:15.488Z,8.75
2018-12-31T08:30:15.482Z,8.74
2018-12-31T08:31:15.468Z,8.74
2018-12-31T08:32:15.491Z,8.75
2018-12-31T08:33:15.448Z,8.80
2018-12-31T08:34:15.441Z,8.80
2018-12-31T08:35:15.447Z,8.74
2018-12-31T08:36:15.468Z,8.75
2018-12-31T08:37:15.518Z,8.71
2018-12-31T08:38:15.388Z,8.80
2018-12-31T08:39:15.401Z,8.78
2018-12-31T08:40:15.448Z,8.71
2018-12-31T08:41:15.364Z,8.85
2018-12-31T08:42:15.362Z,8.86
2018-12-31T08:43:15.337Z,8.81
2018-12-31T08:44:15.364Z,8.88
2018-12-31T08:45:15.345Z,8.89
2018-12-31T08:46:15.299Z,8.98
2018-12-31T08:47:15.297Z,8.89
2018-12-31T08:48:15.275Z,8.95
2018-12-31T08:49:15.264Z,8.86
2018-12-31T08:50:15.257Z,8.99
2018-12-31T08:51:15.263Z,8.89
2018-12-31T08:52:15.243Z,8.93
2018-12-31T08:53:15.223Z,8.86
2018-12-31T08:54:15.274Z,8.88
2018-12-31T08:55:15.228Z,8.88
2018-12-31T08:56:15.185Z,8.85
2018-12-31T08:57:15.174Z,8.86
2018-12-31T08:58:15.183Z,8.81
2018-12-31T08:59:15.156Z,8.85
2018-12-31T09:00:15.141Z,8.86
2018-12-31T09:01:15.160Z,8.90
2018-12-31T09:02:15.121Z,8.89
2018-12-31T09:03:15.115Z,8.93
2018-12-31T09:04:15.143Z,8.92
2018-12-31T09:05:15.087Z,8.92
2018-12-31T09:06:15.085Z,8.92
2018-12-31T09:07:15.089Z,8.92
2018-12-31T09:08:15.055Z,8.92
2018-12-31T09:09:15.048Z,8.95
2018-12-31T09:10:15.067Z,8.95
2018-12-31T09:11:15.032Z,8.95
2018-12-31T09:12:15.012Z,8.92
2018-12-31T09:13:15.026Z,9.08
2018-12-31T09:14:14.988Z,9.03
2018-12-31T09:15:14.975Z,9.08
2018-12-31T09:16:14.983Z,9.08
2018-12-31T09:17:14.959Z,9.08
2018-12-31T09:18:14.969Z,9.06
2018-12-31T09:19:14.979Z,9.04
2018-12-31T09:20:14.920Z,8.96
2018-12-31T09:21:14.909Z,8.98
2018-12-31T09:22:14.904Z,8.96
2018-12-31T09:23:14.887Z,8.99
2018-12-31T09:24:14.897Z,8.99
2018-12-31T09:25:14.945Z,8.95
2018-12-31T09:26:14.859Z,8.92
2018-12-31T09:27:14.844Z,8.99
2018-12-31T09:28:14.840Z,9.01
2018-12-31T09:29:14.822Z,9.03
2018-12-31T09:30:14.830Z,9.04
2018-12-31T09:31:14.801Z,9.06
2018-12-31T09:32:14.824Z,9.08
2018-12-31T09:33:14.796Z,9.04
2018-12-31T09:34:14.768Z,9.06
2018-12-31T09:35:14.756Z,9.12
2018-12-31T09:36:14.745Z,9.09
2018-12-31T09:37:14.732Z,9.09
2018-12-31T09:38:14.952Z,9.08
2018-12-31T09:39:14.711Z,9.04
2018-12-31T09:40:14.698Z,9.06
2018-12-31T09:41:14.693Z,9.01
2018-12-31T09:42:14.678Z,9.09
2018-12-31T09:43:14.680Z,9.08
2018-12-31T09:44:14.755Z,9.08
2018-12-31T09:45:14.686Z,9.08
2018-12-31T09:46:14.635Z,9.08
2018-12-31T09:47:14.627Z,9.08
2018-12-31T09:48:14.668Z,9.03
2018-12-31T09:49:14.603Z,9.08
2018-12-31T09:50:14.588Z,9.09
2018-12-31T09:51:14.623Z,9.09
2018-12-31T09:52:14.578Z,9.08
2018-12-31T09:53:14.882Z,9.12
2018-12-31T09:54:14.548Z,9.11
2018-12-31T09:55:14.544Z,9.18
2018-12-31T09:56:14.526Z,9.12
2018-12-31T09:57:14.518Z,9.11
2018-12-31T09:58:14.505Z,9.16
2018-12-31T09:59:14.527Z,9.22
2018-12-31T10:00:14.483Z,8.98
2018-12-31T10:01:14.481Z,9.11
2018-12-31T10:02:14.461Z,9.15
2018-12-31T10:03:14.450Z,9.14
2018-12-31T10:04:14.469Z,9.22
2018-12-31T10:05:14.422Z,9.11
2018-12-31T10:06:14.415Z,9.12
2018-12-31T10:07:14.397Z,9.18
2018-12-31T10:08:14.391Z,9.16
2018-12-31T10:09:14.403Z,9.12
2018-12-31T10:10:14.384Z,9.22
2018-12-31T10:11:14.353Z,9.16
2018-12-31T10:12:14.345Z,9.12
2018-12-31T10:13:14.364Z,9.15
2018-12-31T10:14:14.353Z,9.22
2018-12-31T10:15:14.312Z,9.16
2018-12-31T10:16:14.308Z,9.24
2018-12-31T10:17:14.290Z,9.24
2018-12-31T10:18:14.333Z,9.23
2018-12-31T10:19:14.275Z,9.18
2018-12-31T10:20:14.256Z,9.24
2018-12-31T10:21:16.087Z,9.26
2018-12-31T10:22:14.235Z,9.24
2018-12-31T10:23:14.224Z,9.22
2018-12-31T10:24:14.241Z,9.22
2018-12-31T10:25:14.201Z,9.23
2018-12-31T10:26:14.203Z,9.24
2018-12-31T10:27:14.187Z,9.23
2018-12-31T10:28:14.170Z,9.22
2018-12-31T10:29:14.158Z,9.27
2018-12-31T10:30:14.176Z,9.18
2018-12-31T10:31:14.142Z,9.18
2018-12-31T10:32:14.123Z,9.24
2018-12-31T10:33:14.117Z,9.23
2018-12-31T10:34:14.106Z,9.24
2018-12-31T10:35:14.092Z,9.23
2018-12-31T10:36:14.277Z,9.29
2018-12-31T10:37:14.067Z,9.33
2018-12-31T10:38:14.059Z,9.37
2018-12-31T10:39:14.053Z,9.30
2018-12-31T10:40:14.033Z,9.33
2018-12-31T10:41:14.022Z,9.29
2018-12-31T10:42:14.040Z,9.32
2018-12-31T10:43:14.005Z,9.27
2018-12-31T10:44:13.989Z,9.27
2018-12-31T10:45:13.987Z,9.34
2018-12-31T10:46:13.968Z,9.37
2018-12-31T10:47:13.959Z,9.33
2018-12-31T10:48:13.967Z,9.34
2018-12-31T10:49:13.934Z,9.27
2018-12-31T10:50:13.955Z,9.30
2018-12-31T10:51:13.910Z,9.40
2018-12-31T10:52:13.917Z,9.27
2018-12-31T10:53:13.891Z,9.30
2018-12-31T10:54:13.884Z,9.40
2018-12-31T10:55:13.869Z,9.37
2018-12-31T10:56:13.883Z,9.36
2018-12-31T10:57:13.844Z,9.42
2018-12-31T10:58:13.840Z,9.44
2018-12-31T10:59:13.836Z,9.42
2018-12-31T11:00:13.841Z,9.50
2018-12-31T11:01:13.837Z,9.47
2018-12-31T11:02:13.793Z,9.42
2018-12-31T11:03:13.777Z,9.47
2018-12-31T11:04:13.775Z,9.52
2018-12-31T11:05:13.758Z,9.48
2018-12-31T11:06:13.782Z,9.51
2018-12-31T11:07:13.736Z,9.51
2018-12-31T11:08:13.730Z,9.59
2018-12-31T11:09:13.716Z,9.54
2018-12-31T11:10:13.703Z,9.54
2018-12-31T11:11:13.722Z,9.51
2018-12-31T11:12:13.701Z,9.52
2018-12-31T11:13:13.677Z,9.55
2018-12-31T11:14:15.253Z,9.55
2018-12-31T11:15:13.643Z,9.50
2018-12-31T11:16:13.665Z,9.55
2018-12-31T11:17:13.622Z,9.52
2018-12-31T11:18:13.619Z,9.60
2018-12-31T11:19:13.604Z,9.65
2018-12-31T11:20:13.590Z,9.57
2018-12-31T11:21:13.602Z,9.67
2018-12-31T11:22:13.570Z,9.65
2018-12-31T11:23:13.591Z,9.60
2018-12-31T11:24:13.556Z,9.62
2018-12-31T11:25:13.545Z,9.65
2018-12-31T11:26:13.521Z,9.66
2018-12-31T11:27:13.536Z,9.62
2018-12-31T11:28:13.499Z,9.63
2018-12-31T11:29:13.488Z,9.66
2018-12-31T11:30:13.478Z,9.63
2018-12-31T11:31:13.479Z,9.67
2018-12-31T11:32:13.483Z,9.65
2018-12-31T11:33:13.448Z,9.65
2018-12-31T11:34:13.436Z,9.55
2018-12-31T11:35:13.420Z,9.57
2018-12-31T11:36:13.412Z,9.60
2018-12-31T11:37:13.430Z,9.54
2018-12-31T11:38:13.395Z,9.55
2018-12-31T11:39:13.377Z,9.54
2018-12-31T11:40:13.364Z,9.57
2018-12-31T11:41:13.667Z,9.52
2018-12-31T11:42:13.376Z,9.65
2018-12-31T11:43:13.335Z,9.60
2018-12-31T11:44:13.328Z,9.55
2018-12-31T11:45:13.442Z,9.70
2018-12-31T11:46:13.316Z,9.67
2018-12-31T11:47:13.304Z,9.62
2018-12-31T11:48:13.282Z,9.72
2018-12-31T11:49:13.269Z,9.62
2018-12-31T11:50:13.257Z,9.72
2018-12-31T11:51:13.267Z,9.65
2018-12-31T11:52:13.241Z,9.69
2018-12-31T11:53:13.252Z,9.73
2018-12-31T11:54:13.215Z,9.72
2018-12-31T11:55:13.204Z,9.72
2018-12-31T11:56:13.431Z,9.72
2018-12-31T11:57:13.229Z,9.69
2018-12-31T11:58:13.207Z,9.72
2018-12-31T11:59:13.155Z,9.72
2018-12-31T12:00:13.144Z,9.77
2018-12-31T12:01:13.139Z,9.83
2018-12-31T12:02:13.123Z,9.78
2018-12-31T12:03:13.134Z,9.73
2018-12-31T12:04:13.111Z,9.73
2018-12-31T12:05:13.090Z,9.78
2018-12-31T12:06:13.077Z,9.84
2018-12-31T12:07:13.064Z,9.78
2018-12-31T12:08:13.064Z,9.80
2018-12-31T12:09:13.067Z,9.78
2018-12-31T12:10:13.046Z,9.78
2018-12-31T12:11:13.022Z,9.77
2018-12-31T12:12:13.010Z,9.75
2018-12-31T12:13:12.998Z,9.70
2018-12-31T12:14:12.987Z,9.67
2018-12-31T12:15:13.245Z,9.69
2018-12-31T12:16:12.970Z,9.69
2018-12-31T12:17:12.953Z,9.70
2018-12-31T12:18:12.950Z,9.72
2018-12-31T12:19:12.933Z,9.73
2018-12-31T12:20:12.918Z,9.75
2018-12-31T12:21:13.108Z,9.78
2018-12-31T12:22:12.905Z,9.67
2018-12-31T12:23:12.936Z,9.73
2018-12-31T12:24:12.880Z,9.73
2018-12-31T12:25:12.867Z,9.70
2018-12-31T12:26:12.919Z,9.77
2018-12-31T12:27:12.872Z,9.87
2018-12-31T12:28:12.833Z,9.73
2018-12-31T12:29:12.828Z,9.69
2018-12-31T12:30:12.814Z,9.70
2018-12-31T12:31:12.799Z,9.73
2018-12-31T12:32:12.788Z,9.73
2018-12-31T12:33:12.809Z,9.69
2018-12-31T12:34:12.765Z,9.65
2018-12-31T12:35:12.793Z,9.65
2018-12-31T12:36:12.753Z,9.69
2018-12-31T12:37:12.729Z,9.69
2018-12-31T12:38:12.721Z,9.72
2018-12-31T12:39:12.715Z,9.69
2018-12-31T12:40:12.726Z,9.69
2018-12-31T12:41:12.693Z,9.77
2018-12-31T12:42:12.688Z,9.73
2018-12-31T12:43:12.665Z,9.67
2018-12-31T12:44:12.663Z,9.72
2018-12-31T12:45:12.670Z,9.72
2018-12-31T12:46:12.632Z,9.72
2018-12-31T12:47:12.635Z,9.67
2018-12-31T12:48:12.608Z,9.69
2018-12-31T12:49:12.595Z,9.72
2018-12-31T12:50:12.617Z,9.69
2018-12-31T12:51:12.597Z,9.70
2018-12-31T12:52:12.566Z,9.78
2018-12-31T12:53:12.558Z,9.70
2018-12-31T12:54:12.542Z,9.69
2018-12-31T12:55:12.552Z,9.77
2018-12-31T12:56:12.538Z,9.73
2018-12-31T12:57:12.519Z,9.75
2018-12-31T12:58:12.496Z,9.72
2018-12-31T12:59:12.485Z,9.73
2018-12-31T13:00:12.502Z,9.78
2018-12-31T13:01:12.468Z,9.67
2018-12-31T13:02:12.465Z,9.70
2018-12-31T13:03:12.440Z,9.69
2018-12-31T13:04:12.432Z,9.70
2018-12-31T13:05:12.448Z,9.67
2018-12-31T13:06:12.408Z,9.77
2018-12-31T13:07:12.405Z,9.77
2018-12-31T13:08:12.386Z,9.73
2018-12-31T13:09:12.554Z,9.73
2018-12-31T13:10:12.369Z,9.73
2018-12-31T13:11:12.408Z,9.69
2018-12-31T13:12:12.342Z,9.77
2018-12-31T13:13:12.335Z,9.72
2018-12-31T13:14:12.354Z,9.72
2018-12-31T13:15:12.313Z,9.72
2018-12-31T13:16:12.404Z,9.66
2018-12-31T13:17:12.286Z,9.65
2018-12-31T13:18:12.280Z,9.62